Hobucken, North Carolina
Current Conditions -  °F | °C
As of 2:56 AM on Tuesday 21 Oct 2014 (Local Time) from KNBT Reporting Station
Overcast Overcast  
Wind Chill: 67°   Ceiling: 6000
Heat Index: 67°   Visibility: 7mi
Dew Point: 61°   Wind: 3mph
Humidity: 81%   Direction: 120°ESE
Pressure: 29.94"   Gusts: NA
Location:  35.25°N, 76.57°W
Report Text: KNBT 210656Z AUTO 12003KT 7SM BKN060 OVC075 19/16 A2994 RMK AO2 SLP142 T01940161 PNO
Loading
Personal Weather Stations






























Interactive Weather Map
Tropical Storm Tracking
New forecast layout! Learn more

10-Day Weather Forecast

Advertisements
Track Severe Weather on mobile